createdAt,value
2023-03-19T00:01:49.066Z,3.42
2023-03-19T00:04:17.264Z,3.80
2023-03-19T00:06:44.210Z,3.78
2023-03-19T00:09:11.387Z,3.20
2023-03-19T00:11:38.035Z,3.35
2023-03-19T00:14:04.690Z,3.70
2023-03-19T00:16:31.336Z,3.60
2023-03-19T00:18:57.961Z,3.67
2023-03-19T00:21:26.001Z,3.78
2023-03-19T00:23:53.064Z,3.40
2023-03-19T00:26:19.795Z,3.35
2023-03-19T00:28:46.501Z,3.50
2023-03-19T00:31:18.126Z,3.30
2023-03-19T00:33:45.639Z,3.70
2023-03-19T00:36:13.096Z,3.42
2023-03-19T00:38:40.394Z,3.60
2023-03-19T00:41:07.427Z,3.70
2023-03-19T00:43:34.115Z,3.33
2023-03-19T00:46:01.050Z,3.65
2023-03-19T00:48:27.901Z,3.20
2023-03-19T00:50:54.486Z,10.50
2023-03-19T00:53:21.567Z,17.40
2023-03-19T00:55:48.178Z,16.20
2023-03-19T00:58:16.032Z,14.15
2023-03-19T01:00:42.575Z,14.65
2023-03-19T01:03:09.340Z,13.25
2023-03-19T01:05:36.277Z,11.65
2023-03-19T01:08:03.156Z,10.35
2023-03-19T01:10:30.214Z,9.80
2023-03-19T01:12:56.990Z,8.60
2023-03-19T01:15:23.621Z,8.32
2023-03-19T01:17:50.700Z,8.05
2023-03-19T01:20:18.999Z,7.07
2023-03-19T01:22:46.268Z,7.63
2023-03-19T01:25:13.967Z,6.70
2023-03-19T01:27:52.415Z,6.95
2023-03-19T01:30:20.636Z,6.70
2023-03-19T01:33:05.536Z,6.53
2023-03-19T01:35:41.448Z,6.43
2023-03-19T01:38:08.206Z,6.05
2023-03-19T01:40:35.387Z,6.30
2023-03-19T01:43:18.536Z,6.20
2023-03-19T01:45:58.874Z,6.30
2023-03-19T01:48:41.229Z,6.38
2023-03-19T01:51:16.292Z,6.00
2023-03-19T01:54:06.159Z,6.32
2023-03-19T01:56:56.818Z,6.05
2023-03-19T01:59:33.994Z,5.72
2023-03-19T02:02:39.818Z,5.63
2023-03-19T02:05:25.389Z,5.57
2023-03-19T02:07:56.748Z,5.78
2023-03-19T02:10:23.811Z,5.28
2023-03-19T02:12:50.621Z,5.57
2023-03-19T02:15:17.628Z,5.45
2023-03-19T02:17:44.678Z,5.50
2023-03-19T02:20:17.405Z,5.07
2023-03-19T02:22:55.329Z,5.20
2023-03-19T02:25:31.095Z,5.45
2023-03-19T02:27:58.261Z,4.93
2023-03-19T02:30:28.147Z,4.80
2023-03-19T02:32:56.072Z,5.47
2023-03-19T02:35:22.835Z,5.22
2023-03-19T02:37:49.453Z,4.93
2023-03-19T02:40:27.406Z,5.10
2023-03-19T02:42:55.003Z,4.85
2023-03-19T02:45:23.886Z,5.45
2023-03-19T02:47:50.621Z,5.10
2023-03-19T02:50:17.350Z,4.90
2023-03-19T02:52:43.951Z,5.10
2023-03-19T02:55:10.639Z,4.63
2023-03-19T02:57:37.200Z,4.80
2023-03-19T03:00:05.500Z,5.22
2023-03-19T03:02:32.577Z,4.75
2023-03-19T03:04:59.276Z,5.22
2023-03-19T03:07:27.068Z,4.65
2023-03-19T03:09:53.662Z,4.72
2023-03-19T03:12:20.370Z,5.20
2023-03-19T03:14:47.021Z,4.70
2023-03-19T03:17:14.371Z,4.63
2023-03-19T03:19:41.150Z,4.53
2023-03-19T03:22:08.232Z,4.90
2023-03-19T03:24:34.867Z,4.85
2023-03-19T03:27:01.579Z,4.82
2023-03-19T03:29:28.280Z,4.70
2023-03-19T03:31:54.988Z,4.75
2023-03-19T03:34:21.818Z,4.30
2023-03-19T03:36:48.388Z,4.57
2023-03-19T03:39:15.207Z,5.00
2023-03-19T03:41:42.453Z,4.70
2023-03-19T03:44:10.172Z,4.60
2023-03-19T03:46:39.156Z,4.68
2023-03-19T03:49:06.638Z,4.72
2023-03-19T03:51:33.268Z,4.50
2023-03-19T03:54:00.444Z,4.50
2023-03-19T03:56:27.195Z,4.47
2023-03-19T03:58:53.925Z,4.43
2023-03-19T04:01:20.538Z,4.75
2023-03-19T04:03:52.116Z,4.65
2023-03-19T04:06:19.863Z,4.43
2023-03-19T04:08:51.832Z,4.38
2023-03-19T04:11:18.968Z,4.43
2023-03-19T04:13:45.769Z,4.55
2023-03-19T04:16:12.674Z,4.30
2023-03-19T04:18:39.258Z,4.40
2023-03-19T04:21:06.640Z,4.50
2023-03-19T04:23:33.696Z,4.20
2023-03-19T04:26:02.018Z,4.50
2023-03-19T04:28:31.327Z,4.40
2023-03-19T04:31:02.064Z,4.80
2023-03-19T04:33:30.573Z,4.85
2023-03-19T04:35:57.681Z,4.60
2023-03-19T04:38:26.448Z,4.57
2023-03-19T04:40:53.488Z,4.85
2023-03-19T04:43:21.147Z,4.80
2023-03-19T04:45:47.855Z,4.80
2023-03-19T04:48:14.487Z,5.05
2023-03-19T04:50:41.895Z,4.82
2023-03-19T04:53:09.038Z,4.78
2023-03-19T04:55:37.145Z,5.47
2023-03-19T04:58:14.304Z,5.22
2023-03-19T05:00:42.123Z,4.90
2023-03-19T05:03:08.775Z,4.80
2023-03-19T05:05:36.106Z,4.78
2023-03-19T05:08:07.437Z,5.03
2023-03-19T05:10:35.668Z,4.55
2023-03-19T05:13:03.510Z,4.65
2023-03-19T05:15:31.051Z,4.55
2023-03-19T05:18:02.160Z,4.65
2023-03-19T05:20:39.753Z,4.50
2023-03-19T05:25:46.309Z,4.30
2023-03-19T05:28:17.047Z,4.63
2023-03-19T05:30:43.914Z,4.57
2023-03-19T05:33:33.752Z,4.30
2023-03-19T05:36:00.841Z,4.60
2023-03-19T05:38:39.978Z,4.50
2023-03-19T05:41:11.750Z,4.55
2023-03-19T05:43:50.075Z,4.53
2023-03-19T05:46:32.246Z,4.50
2023-03-19T05:48:58.874Z,4.60
2023-03-19T05:51:25.603Z,4.97
2023-03-19T05:53:52.598Z,4.60
2023-03-19T05:56:33.153Z,4.25
2023-03-19T05:59:18.619Z,4.22
2023-03-19T06:01:53.771Z,4.47
2023-03-19T06:04:20.547Z,4.30
2023-03-19T06:06:47.604Z,4.25
2023-03-19T06:09:15.330Z,4.47
2023-03-19T06:11:44.751Z,4.57
2023-03-19T06:14:34.197Z,4.55
2023-03-19T06:17:19.459Z,4.72
2023-03-19T06:19:48.057Z,4.10
2023-03-19T06:22:14.823Z,3.83
2023-03-19T06:24:41.906Z,4.40
2023-03-19T06:27:09.811Z,4.20
2023-03-19T06:29:37.272Z,3.80
2023-03-19T06:32:16.602Z,4.20
2023-03-19T06:34:43.257Z,3.70
2023-03-19T06:37:10.800Z,4.03
2023-03-19T06:39:37.398Z,4.25
2023-03-19T06:42:04.080Z,3.88
2023-03-19T06:44:30.804Z,4.22
2023-03-19T06:46:57.391Z,3.92
2023-03-19T06:49:24.077Z,4.03
2023-03-19T06:51:50.825Z,3.95
2023-03-19T06:54:17.433Z,4.18
2023-03-19T06:56:44.867Z,3.95
2023-03-19T06:59:13.135Z,4.60
2023-03-19T07:01:42.701Z,4.50
2023-03-19T07:04:10.917Z,4.15
2023-03-19T07:06:37.786Z,4.10
2023-03-19T07:09:04.798Z,3.83
2023-03-19T07:11:35.212Z,3.70
2023-03-19T07:14:02.633Z,3.70
2023-03-19T07:16:29.244Z,3.60
2023-03-19T07:18:56.838Z,3.75
2023-03-19T07:21:23.569Z,4.10
2023-03-19T07:23:53.145Z,3.60
2023-03-19T07:26:19.914Z,3.40
2023-03-19T07:28:46.721Z,3.78
2023-03-19T07:31:13.417Z,3.80
2023-03-19T07:33:40.372Z,3.83
2023-03-19T07:36:07.949Z,3.78
2023-03-19T07:38:34.540Z,4.22
2023-03-19T07:41:03.147Z,3.75
2023-03-19T07:43:31.278Z,3.67
2023-03-19T07:45:58.603Z,4.00
2023-03-19T07:48:25.382Z,3.83
2023-03-19T07:50:52.441Z,3.47
2023-03-19T07:53:19.240Z,3.70
2023-03-19T07:55:46.093Z,3.45
2023-03-19T07:58:12.832Z,4.15
2023-03-19T08:00:39.597Z,4.05
2023-03-19T08:03:06.204Z,3.88
2023-03-19T08:05:32.822Z,4.03
2023-03-19T08:07:59.434Z,3.60
2023-03-19T08:10:26.175Z,3.50
2023-03-19T08:12:52.837Z,3.67
2023-03-19T08:15:19.582Z,3.33
2023-03-19T08:17:46.469Z,3.75
2023-03-19T08:20:16.373Z,3.80
2023-03-19T08:22:43.207Z,3.55
2023-03-19T08:25:10.664Z,3.67
2023-03-19T08:27:37.414Z,3.63
2023-03-19T08:30:05.579Z,3.80
2023-03-19T08:32:32.220Z,3.40
2023-03-19T08:34:58.830Z,3.65
2023-03-19T08:37:25.626Z,3.50
2023-03-19T08:39:52.422Z,3.95
2023-03-19T08:42:22.758Z,3.90
2023-03-19T08:44:50.188Z,3.55
2023-03-19T08:47:16.994Z,4.10
2023-03-19T08:49:43.584Z,3.78
2023-03-19T08:52:10.832Z,3.70
2023-03-19T08:54:37.537Z,3.60
2023-03-19T08:57:04.249Z,3.33
2023-03-19T08:59:33.809Z,3.35
2023-03-19T09:02:01.151Z,3.90
2023-03-19T09:04:27.810Z,3.45
2023-03-19T09:06:54.465Z,3.50
2023-03-19T09:09:22.624Z,3.40
2023-03-19T09:11:49.560Z,3.35
2023-03-19T09:14:19.883Z,3.60
2023-03-19T09:16:46.548Z,3.70
2023-03-19T09:19:13.115Z,3.47
2023-03-19T09:21:39.842Z,3.45
2023-03-19T09:24:07.020Z,3.45
2023-03-19T09:26:33.614Z,3.40
2023-03-19T09:29:00.219Z,3.65
2023-03-19T09:31:29.463Z,3.50
2023-03-19T09:33:56.329Z,3.60
2023-03-19T09:36:22.913Z,3.58
2023-03-19T09:38:49.472Z,3.42
2023-03-19T09:41:44.964Z,3.65
2023-03-19T09:44:14.732Z,3.70
2023-03-19T09:46:56.167Z,3.28
2023-03-19T09:49:28.294Z,3.53
2023-03-19T09:52:19.762Z,3.45
2023-03-19T09:54:48.417Z,3.55
2023-03-19T09:57:17.429Z,3.92
2023-03-19T09:59:44.771Z,3.30
2023-03-19T10:02:42.858Z,4.30
2023-03-19T10:05:46.750Z,4.45
2023-03-19T10:08:32.058Z,4.00
2023-03-19T10:13:47.624Z,4.00
2023-03-19T10:16:19.514Z,4.20
2023-03-19T10:18:49.973Z,3.90
2023-03-19T10:21:22.397Z,3.90
2023-03-19T10:24:04.236Z,3.80
2023-03-19T10:26:35.514Z,3.70
2023-03-19T10:29:09.406Z,3.80
2023-03-19T10:31:58.283Z,5.03
2023-03-19T10:34:31.533Z,4.15
2023-03-19T10:37:13.065Z,4.35
2023-03-19T10:39:41.891Z,4.15
2023-03-19T10:42:25.768Z,4.07
2023-03-19T10:45:17.028Z,3.67
2023-03-19T10:47:43.678Z,3.83
2023-03-19T10:50:19.205Z,3.75
2023-03-19T10:52:51.576Z,3.70
2023-03-19T10:55:24.113Z,3.75
2023-03-19T10:57:52.305Z,3.70
2023-03-19T11:00:22.783Z,4.38
2023-03-19T11:02:54.147Z,4.05
2023-03-19T11:05:31.645Z,3.97
2023-03-19T11:08:04.603Z,4.05
2023-03-19T11:10:33.892Z,3.92
2023-03-19T11:13:16.094Z,4.05
2023-03-19T11:15:42.650Z,3.92
2023-03-19T11:18:20.471Z,3.78
2023-03-19T11:20:56.456Z,3.80
2023-03-19T11:23:23.011Z,3.78
2023-03-19T11:25:52.437Z,3.80
2023-03-19T11:28:26.396Z,4.20
2023-03-19T11:30:58.923Z,3.80
2023-03-19T11:33:25.584Z,3.40
2023-03-19T11:36:03.421Z,3.85
2023-03-19T11:38:51.552Z,3.70
2023-03-19T11:41:34.921Z,3.70
2023-03-19T11:44:19.172Z,3.47
2023-03-19T11:47:17.794Z,3.95
2023-03-19T11:50:19.562Z,3.60
2023-03-19T11:53:23.806Z,3.83
2023-03-19T11:56:09.137Z,3.70
2023-03-19T11:58:44.312Z,3.60
2023-03-19T12:01:44.848Z,3.50
2023-03-19T12:04:23.492Z,3.70
2023-03-19T12:07:02.464Z,3.83
2023-03-19T12:09:35.989Z,3.72
2023-03-19T12:12:26.635Z,3.80
2023-03-19T12:15:03.021Z,3.70
2023-03-19T12:17:48.506Z,3.70
2023-03-19T12:20:30.682Z,3.55
2023-03-19T12:23:04.485Z,3.20
2023-03-19T12:26:06.668Z,3.60
2023-03-19T12:28:36.390Z,3.42
2023-03-19T12:31:30.124Z,3.50
2023-03-19T12:34:20.919Z,3.67
2023-03-19T12:37:14.366Z,3.33
2023-03-19T12:39:48.749Z,3.65
2023-03-19T12:42:18.887Z,3.78
2023-03-19T12:44:54.222Z,3.42
2023-03-19T12:47:27.101Z,3.42
2023-03-19T12:50:08.447Z,3.85
2023-03-19T12:52:39.957Z,3.60
2023-03-19T12:55:12.621Z,3.83
2023-03-19T12:58:12.377Z,3.95
2023-03-19T13:00:47.763Z,3.70
2023-03-19T13:03:50.247Z,3.78
2023-03-19T13:06:23.956Z,3.67
2023-03-19T13:09:19.573Z,4.00
2023-03-19T13:11:55.655Z,3.20
2023-03-19T13:14:29.799Z,3.58
2023-03-19T13:17:31.706Z,3.60
2023-03-19T13:19:58.941Z,3.60
2023-03-19T13:22:32.634Z,3.42
2023-03-19T13:25:00.485Z,3.23
2023-03-19T13:27:27.909Z,3.78
2023-03-19T13:30:10.263Z,3.70
2023-03-19T13:32:55.838Z,3.40
2023-03-19T13:35:39.877Z,3.45
2023-03-19T13:38:35.007Z,3.47
2023-03-19T13:41:02.357Z,3.65
2023-03-19T13:43:29.423Z,3.42
2023-03-19T13:46:17.916Z,3.50
2023-03-19T13:48:47.732Z,3.60
2023-03-19T13:51:20.348Z,3.58
2023-03-19T13:53:55.286Z,3.47
2023-03-19T13:59:15.526Z,3.45
2023-03-19T14:01:47.346Z,3.67
2023-03-19T14:04:44.537Z,3.30
2023-03-19T14:07:19.653Z,3.45
2023-03-19T14:09:49.547Z,3.40
2023-03-19T14:12:16.299Z,3.22
2023-03-19T14:14:46.747Z,3.13
2023-03-19T14:17:15.542Z,3.55
2023-03-19T14:19:42.347Z,3.65
2023-03-19T14:22:18.893Z,3.20
2023-03-19T14:25:15.444Z,3.40
2023-03-19T14:27:50.750Z,3.63
2023-03-19T14:30:38.896Z,3.30
2023-03-19T14:33:08.419Z,3.60
2023-03-19T14:35:42.969Z,3.63
2023-03-19T14:38:28.489Z,3.80
2023-03-19T14:40:56.318Z,3.28
2023-03-19T14:43:57.178Z,3.45
2023-03-19T14:46:32.849Z,3.63
2023-03-19T14:49:18.065Z,3.45
2023-03-19T14:54:21.509Z,3.70
2023-03-19T14:56:48.908Z,3.63
2023-03-19T14:59:16.055Z,3.42
2023-03-19T15:01:49.247Z,3.28
2023-03-19T15:04:16.764Z,3.47
2023-03-19T15:06:48.466Z,3.40
2023-03-19T15:09:33.861Z,3.35
2023-03-19T15:12:31.407Z,3.38
2023-03-19T15:15:06.917Z,3.50
2023-03-19T15:17:35.245Z,3.47
2023-03-19T15:20:16.597Z,3.15
2023-03-19T15:22:43.311Z,3.33
2023-03-19T15:25:15.033Z,3.08
2023-03-19T15:27:42.661Z,3.40
2023-03-19T15:30:24.870Z,3.10
2023-03-19T15:33:08.054Z,2.95
2023-03-19T15:35:37.539Z,3.50
2023-03-19T15:38:09.656Z,3.40
2023-03-19T15:40:37.350Z,3.50
2023-03-19T15:43:04.371Z,3.20
2023-03-19T15:45:33.742Z,3.10
2023-03-19T15:48:04.672Z,3.20
2023-03-19T15:50:34.520Z,3.55
2023-03-19T15:53:05.931Z,3.60
2023-03-19T15:55:35.103Z,3.55
2023-03-19T15:58:10.623Z,3.80
2023-03-19T16:00:40.260Z,3.88
2023-03-19T16:03:07.956Z,3.72
2023-03-19T16:05:35.122Z,3.60
2023-03-19T16:08:11.183Z,4.38
2023-03-19T16:10:47.391Z,3.78
2023-03-19T16:13:38.677Z,4.18
2023-03-19T16:16:08.695Z,4.25
2023-03-19T16:18:55.868Z,4.15
2023-03-19T16:21:23.753Z,3.80
2023-03-19T16:23:54.564Z,4.10
2023-03-19T16:26:47.414Z,4.20
2023-03-19T16:29:28.172Z,3.80
2023-03-19T16:32:17.065Z,4.28
2023-03-19T16:34:49.290Z,4.20
2023-03-19T16:37:33.904Z,3.85
2023-03-19T16:40:23.809Z,3.75
2023-03-19T16:42:52.824Z,3.97
2023-03-19T16:45:19.517Z,4.10
2023-03-19T16:47:50.884Z,4.07
2023-03-19T16:50:20.089Z,4.18
2023-03-19T16:52:47.532Z,3.80
2023-03-19T16:55:23.649Z,4.03
2023-03-19T16:58:02.062Z,3.72
2023-03-19T17:00:32.091Z,4.25
2023-03-19T17:02:59.455Z,4.20
2023-03-19T17:05:27.956Z,4.63
2023-03-19T17:07:57.901Z,5.35
2023-03-19T17:10:27.375Z,5.55
2023-03-19T17:12:55.298Z,5.53
2023-03-19T17:15:37.962Z,5.20
2023-03-19T17:18:13.351Z,4.80
2023-03-19T17:20:46.516Z,4.53
2023-03-19T17:23:13.983Z,4.90
2023-03-19T17:25:41.050Z,5.20
2023-03-19T17:28:07.643Z,4.50
2023-03-19T17:30:34.557Z,4.80
2023-03-19T17:33:01.600Z,4.50
2023-03-19T17:35:28.222Z,4.57
2023-03-19T17:37:55.216Z,4.65
2023-03-19T17:40:27.339Z,4.70
2023-03-19T17:42:55.349Z,4.20
2023-03-19T17:45:25.571Z,4.80
2023-03-19T17:47:56.264Z,4.18
2023-03-19T17:50:26.401Z,3.90
2023-03-19T17:52:53.351Z,4.45
2023-03-19T17:55:24.891Z,4.05
2023-03-19T17:57:51.748Z,4.03
2023-03-19T18:00:20.791Z,4.78
2023-03-19T18:02:49.451Z,4.93
2023-03-19T18:05:18.153Z,4.07
2023-03-19T18:07:46.197Z,3.80
2023-03-19T18:10:21.230Z,4.32
2023-03-19T18:12:49.416Z,4.30
2023-03-19T18:15:16.695Z,4.25
2023-03-19T18:17:46.747Z,4.55
2023-03-19T18:20:18.544Z,4.10
2023-03-19T18:22:45.547Z,4.13
2023-03-19T18:25:21.340Z,4.43
2023-03-19T18:27:48.420Z,4.45
2023-03-19T18:30:17.901Z,4.05
2023-03-19T18:32:47.335Z,4.47
2023-03-19T18:35:18.540Z,4.25
2023-03-19T18:37:46.857Z,4.35
2023-03-19T18:40:21.673Z,4.47
2023-03-19T18:42:48.781Z,4.10
2023-03-19T18:45:17.342Z,3.90
2023-03-19T18:47:45.976Z,4.10
2023-03-19T18:50:24.658Z,4.30
2023-03-19T18:52:52.588Z,3.97
2023-03-19T18:55:20.233Z,3.85
2023-03-19T18:57:53.826Z,4.22
2023-03-19T19:00:26.723Z,3.95
2023-03-19T19:02:55.122Z,4.25
2023-03-19T19:05:23.969Z,3.97
2023-03-19T19:07:51.641Z,3.72
2023-03-19T19:10:18.713Z,3.88
2023-03-19T19:12:47.873Z,4.15
2023-03-19T19:15:19.982Z,4.18
2023-03-19T19:17:47.901Z,4.10
2023-03-19T19:20:26.992Z,3.97
2023-03-19T19:22:54.208Z,4.00
2023-03-19T19:25:24.211Z,3.83
2023-03-19T19:27:57.500Z,3.50
2023-03-19T19:30:24.410Z,2.30
2023-03-19T19:32:51.044Z,1.90
2023-03-19T19:35:23.520Z,2.40
2023-03-19T19:37:50.894Z,2.40
2023-03-19T19:40:20.860Z,2.70
2023-03-19T19:42:51.438Z,3.22
2023-03-19T19:45:34.578Z,3.70
2023-03-19T19:48:10.583Z,3.40
2023-03-19T19:50:37.190Z,3.42
2023-03-19T19:53:03.777Z,3.67
2023-03-19T19:55:30.610Z,3.33
2023-03-19T19:57:58.054Z,3.50
2023-03-19T20:00:27.446Z,3.58
2023-03-19T20:02:55.338Z,3.50
2023-03-19T20:05:35.834Z,3.70
2023-03-19T20:08:02.899Z,3.42
2023-03-19T20:10:30.985Z,3.72
2023-03-19T20:13:00.319Z,3.70
2023-03-19T20:15:36.383Z,3.35
2023-03-19T20:18:05.073Z,3.70
2023-03-19T20:20:33.244Z,3.15
2023-03-19T20:23:02.078Z,3.55
2023-03-19T20:25:32.529Z,3.78
2023-03-19T20:28:00.376Z,3.78
2023-03-19T20:30:32.788Z,3.60
2023-03-19T20:33:00.898Z,3.70
2023-03-19T20:35:30.099Z,3.22
2023-03-19T20:37:58.504Z,3.22
2023-03-19T20:40:32.187Z,3.95
2023-03-19T20:42:59.239Z,3.80
2023-03-19T20:45:31.142Z,3.60
2023-03-19T20:47:58.512Z,3.80
2023-03-19T20:50:28.796Z,4.25
2023-03-19T20:53:01.034Z,3.60
2023-03-19T20:55:30.859Z,3.70
2023-03-19T20:57:58.337Z,3.70
2023-03-19T21:00:31.099Z,3.50
2023-03-19T21:02:59.092Z,3.92
2023-03-19T21:05:33.970Z,3.88
2023-03-19T21:08:01.360Z,3.58
2023-03-19T21:10:30.500Z,3.67
2023-03-19T21:12:58.372Z,3.95
2023-03-19T21:15:25.757Z,3.80
2023-03-19T21:17:53.278Z,3.70
2023-03-19T21:20:23.951Z,3.92
2023-03-19T21:22:54.273Z,3.83
2023-03-19T21:25:24.638Z,3.70
2023-03-19T21:27:54.122Z,3.58
2023-03-19T21:30:21.794Z,4.18
2023-03-19T21:32:49.781Z,3.88
2023-03-19T21:35:21.861Z,4.07
2023-03-19T21:37:49.269Z,4.03
2023-03-19T21:40:18.184Z,3.92
2023-03-19T21:42:47.712Z,3.80
2023-03-19T21:45:17.974Z,3.95
2023-03-19T21:47:44.888Z,3.92
2023-03-19T21:50:17.389Z,4.13
2023-03-19T21:52:57.864Z,4.30
2023-03-19T21:55:27.646Z,3.83
2023-03-19T21:57:56.775Z,3.90
2023-03-19T22:00:23.446Z,4.10
2023-03-19T22:02:50.368Z,3.80
2023-03-19T22:05:25.746Z,3.90
2023-03-19T22:07:52.643Z,4.32
2023-03-19T22:10:20.898Z,3.90
2023-03-19T22:12:48.186Z,4.15
2023-03-19T22:15:34.812Z,4.00
2023-03-19T22:18:02.636Z,4.10
2023-03-19T22:20:29.248Z,4.18
2023-03-19T22:22:56.186Z,4.30
2023-03-19T22:25:23.938Z,4.07
2023-03-19T22:27:51.027Z,4.10
2023-03-19T22:30:25.644Z,4.38
2023-03-19T22:32:53.859Z,4.13
2023-03-19T22:35:20.587Z,4.00
2023-03-19T22:37:47.180Z,3.70
2023-03-19T22:40:16.207Z,4.28
2023-03-19T22:42:44.286Z,4.20
2023-03-19T22:45:28.460Z,4.40
2023-03-19T22:47:56.998Z,4.30
2023-03-19T22:50:27.924Z,4.55
2023-03-19T22:52:54.870Z,4.60
2023-03-19T22:55:21.920Z,4.57
2023-03-19T22:57:48.829Z,4.00
2023-03-19T23:00:18.558Z,4.55
2023-03-19T23:02:47.717Z,4.47
2023-03-19T23:05:31.091Z,4.53
2023-03-19T23:07:58.215Z,4.82
2023-03-19T23:10:27.654Z,4.53
2023-03-19T23:12:55.641Z,4.82
2023-03-19T23:15:25.289Z,5.28
2023-03-19T23:17:55.981Z,4.95
2023-03-19T23:20:24.390Z,5.22
2023-03-19T23:22:50.989Z,4.95
2023-03-19T23:25:21.523Z,4.63
2023-03-19T23:27:48.467Z,4.97
2023-03-19T23:30:24.835Z,4.70
2023-03-19T23:32:52.511Z,5.20
2023-03-19T23:35:21.323Z,4.65
2023-03-19T23:37:48.218Z,4.75
2023-03-19T23:40:16.913Z,4.70
2023-03-19T23:42:52.243Z,4.68
2023-03-19T23:45:40.533Z,4.75
2023-03-19T23:48:13.582Z,4.70
2023-03-19T23:50:40.253Z,4.65
2023-03-19T23:53:07.099Z,4.85
2023-03-19T23:55:34.193Z,4.93
2023-03-19T23:58:01.525Z,4.90
